sensor_id;sensor_type;location;lat;lon;timestamp;P1;durP1;ratioP1;P2;durP2;ratioP2
20076;SDS011;12348;42.710;23.378;2023-04-25T00:04:27;5.83;;;4.17;;
20076;SDS011;12348;42.710;23.378;2023-04-25T00:06:54;6.10;;;3.97;;
20076;SDS011;12348;42.710;23.378;2023-04-25T00:09:22;6.13;;;4.53;;
20076;SDS011;12348;42.710;23.378;2023-04-25T00:11:49;8.67;;;4.23;;
20076;SDS011;12348;42.710;23.378;2023-04-25T00:14:16;8.77;;;4.10;;
20076;SDS011;12348;42.710;23.378;2023-04-25T00:16:42;4.40;;;3.30;;
20076;SDS011;12348;42.710;23.378;2023-04-25T00:19:09;4.67;;;3.13;;
20076;SDS011;12348;42.710;23.378;2023-04-25T00:21:39;5.53;;;4.03;;
20076;SDS011;12348;42.710;23.378;2023-04-25T00:24:06;5.23;;;4.13;;
20076;SDS011;12348;42.710;23.378;2023-04-25T00:26:33;4.60;;;3.80;;
20076;SDS011;12348;42.710;23.378;2023-04-25T00:29:01;4.80;;;3.93;;
20076;SDS011;12348;42.710;23.378;2023-04-25T00:31:28;5.40;;;3.10;;
20076;SDS011;12348;42.710;23.378;2023-04-25T00:33:55;4.03;;;3.40;;
20076;SDS011;12348;42.710;23.378;2023-04-25T00:36:22;4.63;;;3.40;;
20076;SDS011;12348;42.710;23.378;2023-04-25T00:38:50;4.33;;;3.63;;
20076;SDS011;12348;42.710;23.378;2023-04-25T00:41:17;4.47;;;3.30;;
20076;SDS011;12348;42.710;23.378;2023-04-25T00:43:44;4.80;;;3.40;;
20076;SDS011;12348;42.710;23.378;2023-04-25T00:46:12;5.10;;;4.07;;
20076;SDS011;12348;42.710;23.378;2023-04-25T00:48:39;5.63;;;3.50;;
20076;SDS011;12348;42.710;23.378;2023-04-25T00:51:05;5.10;;;3.83;;
20076;SDS011;12348;42.710;23.378;2023-04-25T00:53:32;6.20;;;4.20;;
20076;SDS011;12348;42.710;23.378;2023-04-25T00:56:01;5.83;;;4.60;;
20076;SDS011;12348;42.710;23.378;2023-04-25T00:58:29;4.70;;;3.47;;
20076;SDS011;12348;42.710;23.378;2023-04-25T01:00:56;6.23;;;3.83;;
20076;SDS011;12348;42.710;23.378;2023-04-25T01:03:23;6.77;;;4.40;;
20076;SDS011;12348;42.710;23.378;2023-04-25T01:05:52;6.97;;;5.00;;
20076;SDS011;12348;42.710;23.378;2023-04-25T01:08:19;5.87;;;4.40;;
20076;SDS011;12348;42.710;23.378;2023-04-25T01:10:49;8.30;;;4.97;;
20076;SDS011;12348;42.710;23.378;2023-04-25T01:13:18;6.97;;;4.40;;
20076;SDS011;12348;42.710;23.378;2023-04-25T01:15:45;6.87;;;4.20;;
20076;SDS011;12348;42.710;23.378;2023-04-25T01:18:11;6.20;;;4.47;;
20076;SDS011;12348;42.710;23.378;2023-04-25T01:20:38;7.47;;;4.67;;
20076;SDS011;12348;42.710;23.378;2023-04-25T01:23:09;6.67;;;4.57;;
20076;SDS011;12348;42.710;23.378;2023-04-25T01:25:36;7.30;;;4.97;;
20076;SDS011;12348;42.710;23.378;2023-04-25T01:28:04;7.13;;;4.83;;
20076;SDS011;12348;42.710;23.378;2023-04-25T01:30:32;5.60;;;4.47;;
20076;SDS011;12348;42.710;23.378;2023-04-25T01:33:00;6.97;;;4.20;;
20076;SDS011;12348;42.710;23.378;2023-04-25T01:35:27;6.43;;;3.93;;
20076;SDS011;12348;42.710;23.378;2023-04-25T01:37:55;8.83;;;4.40;;
20076;SDS011;12348;42.710;23.378;2023-04-25T01:40:23;6.90;;;3.80;;
20076;SDS011;12348;42.710;23.378;2023-04-25T01:42:50;5.70;;;4.10;;
20076;SDS011;12348;42.710;23.378;2023-04-25T01:45:18;6.13;;;3.90;;
20076;SDS011;12348;42.710;23.378;2023-04-25T01:47:45;4.70;;;3.83;;
20076;SDS011;12348;42.710;23.378;2023-04-25T01:50:14;4.50;;;3.20;;
20076;SDS011;12348;42.710;23.378;2023-04-25T01:52:42;4.87;;;3.90;;
20076;SDS011;12348;42.710;23.378;2023-04-25T01:55:09;5.87;;;3.70;;
20076;SDS011;12348;42.710;23.378;2023-04-25T01:57:37;3.93;;;2.70;;
20076;SDS011;12348;42.710;23.378;2023-04-25T02:00:05;5.20;;;3.63;;
20076;SDS011;12348;42.710;23.378;2023-04-25T02:02:33;5.60;;;3.73;;
20076;SDS011;12348;42.710;23.378;2023-04-25T02:05:00;3.40;;;3.03;;
20076;SDS011;12348;42.710;23.378;2023-04-25T02:07:27;6.97;;;3.60;;
20076;SDS011;12348;42.710;23.378;2023-04-25T02:09:54;6.80;;;4.20;;
20076;SDS011;12348;42.710;23.378;2023-04-25T02:12:23;5.30;;;4.10;;
20076;SDS011;12348;42.710;23.378;2023-04-25T02:14:52;4.57;;;3.23;;
20076;SDS011;12348;42.710;23.378;2023-04-25T02:17:19;6.50;;;4.47;;
20076;SDS011;12348;42.710;23.378;2023-04-25T02:19:47;6.63;;;4.70;;
20076;SDS011;12348;42.710;23.378;2023-04-25T02:22:14;7.13;;;5.47;;
20076;SDS011;12348;42.710;23.378;2023-04-25T02:24:40;10.93;;;5.73;;
20076;SDS011;12348;42.710;23.378;2023-04-25T02:27:07;9.07;;;5.87;;
20076;SDS011;12348;42.710;23.378;2023-04-25T02:29:34;6.13;;;4.83;;
20076;SDS011;12348;42.710;23.378;2023-04-25T02:32:02;10.43;;;5.70;;
20076;SDS011;12348;42.710;23.378;2023-04-25T02:34:29;6.60;;;4.50;;
20076;SDS011;12348;42.710;23.378;2023-04-25T02:36:56;6.03;;;5.03;;
20076;SDS011;12348;42.710;23.378;2023-04-25T02:39:23;6.73;;;4.93;;
20076;SDS011;12348;42.710;23.378;2023-04-25T02:41:50;10.87;;;6.20;;
20076;SDS011;12348;42.710;23.378;2023-04-25T02:44:17;7.80;;;5.47;;
20076;SDS011;12348;42.710;23.378;2023-04-25T02:46:45;7.97;;;5.77;;
20076;SDS011;12348;42.710;23.378;2023-04-25T02:49:13;14.03;;;5.47;;
20076;SDS011;12348;42.710;23.378;2023-04-25T02:51:40;9.10;;;6.33;;
20076;SDS011;12348;42.710;23.378;2023-04-25T02:54:06;9.80;;;6.37;;
20076;SDS011;12348;42.710;23.378;2023-04-25T02:56:33;9.63;;;6.07;;
20076;SDS011;12348;42.710;23.378;2023-04-25T02:59:00;15.10;;;8.40;;
20076;SDS011;12348;42.710;23.378;2023-04-25T03:01:26;11.80;;;7.10;;
20076;SDS011;12348;42.710;23.378;2023-04-25T03:03:54;11.50;;;6.67;;
20076;SDS011;12348;42.710;23.378;2023-04-25T03:06:22;9.77;;;7.07;;
20076;SDS011;12348;42.710;23.378;2023-04-25T03:08:49;13.00;;;6.67;;
20076;SDS011;12348;42.710;23.378;2023-04-25T03:11:16;12.07;;;7.73;;
20076;SDS011;12348;42.710;23.378;2023-04-25T03:13:45;10.03;;;6.73;;
20076;SDS011;12348;42.710;23.378;2023-04-25T03:16:12;11.93;;;7.13;;
20076;SDS011;12348;42.710;23.378;2023-04-25T03:18:39;12.70;;;7.97;;
20076;SDS011;12348;42.710;23.378;2023-04-25T03:21:06;14.90;;;7.80;;
20076;SDS011;12348;42.710;23.378;2023-04-25T03:23:34;11.30;;;7.63;;
20076;SDS011;12348;42.710;23.378;2023-04-25T03:26:01;43.00;;;21.77;;
20076;SDS011;12348;42.710;23.378;2023-04-25T03:28:28;13.87;;;7.80;;
20076;SDS011;12348;42.710;23.378;2023-04-25T03:30:54;14.93;;;7.70;;
20076;SDS011;12348;42.710;23.378;2023-04-25T03:33:21;13.67;;;8.27;;
20076;SDS011;12348;42.710;23.378;2023-04-25T03:35:48;11.27;;;7.47;;
20076;SDS011;12348;42.710;23.378;2023-04-25T03:38:15;15.70;;;8.73;;
20076;SDS011;12348;42.710;23.378;2023-04-25T03:40:44;11.53;;;6.87;;
20076;SDS011;12348;42.710;23.378;2023-04-25T03:43:11;13.23;;;7.50;;
20076;SDS011;12348;42.710;23.378;2023-04-25T03:45:38;13.43;;;8.17;;
20076;SDS011;12348;42.710;23.378;2023-04-25T03:48:04;13.53;;;8.20;;
20076;SDS011;12348;42.710;23.378;2023-04-25T03:50:31;16.23;;;8.93;;
20076;SDS011;12348;42.710;23.378;2023-04-25T03:52:58;17.07;;;8.93;;
20076;SDS011;12348;42.710;23.378;2023-04-25T03:55:25;13.37;;;8.77;;
20076;SDS011;12348;42.710;23.378;2023-04-25T03:57:53;14.37;;;9.37;;
20076;SDS011;12348;42.710;23.378;2023-04-25T04:00:19;17.03;;;9.97;;
20076;SDS011;12348;42.710;23.378;2023-04-25T04:02:46;17.63;;;10.17;;
20076;SDS011;12348;42.710;23.378;2023-04-25T04:05:13;16.53;;;11.07;;
20076;SDS011;12348;42.710;23.378;2023-04-25T04:07:40;16.13;;;9.43;;
20076;SDS011;12348;42.710;23.378;2023-04-25T04:10:08;15.43;;;9.30;;
20076;SDS011;12348;42.710;23.378;2023-04-25T04:12:36;12.23;;;8.30;;
20076;SDS011;12348;42.710;23.378;2023-04-25T04:15:04;12.40;;;8.07;;
20076;SDS011;12348;42.710;23.378;2023-04-25T04:17:32;11.43;;;7.77;;
20076;SDS011;12348;42.710;23.378;2023-04-25T04:19:59;9.47;;;6.47;;
20076;SDS011;12348;42.710;23.378;2023-04-25T04:22:26;7.57;;;5.43;;
20076;SDS011;12348;42.710;23.378;2023-04-25T04:24:53;7.50;;;5.57;;
20076;SDS011;12348;42.710;23.378;2023-04-25T04:27:22;7.67;;;5.47;;
20076;SDS011;12348;42.710;23.378;2023-04-25T04:29:49;7.90;;;5.77;;
20076;SDS011;12348;42.710;23.378;2023-04-25T04:32:19;9.20;;;5.57;;
20076;SDS011;12348;42.710;23.378;2023-04-25T04:34:45;9.27;;;7.17;;
20076;SDS011;12348;42.710;23.378;2023-04-25T04:37:13;11.33;;;6.87;;
20076;SDS011;12348;42.710;23.378;2023-04-25T04:39:40;8.87;;;6.70;;
20076;SDS011;12348;42.710;23.378;2023-04-25T04:42:07;9.87;;;6.63;;
20076;SDS011;12348;42.710;23.378;2023-04-25T04:44:34;9.10;;;6.43;;
20076;SDS011;12348;42.710;23.378;2023-04-25T04:47:01;9.90;;;5.83;;
20076;SDS011;12348;42.710;23.378;2023-04-25T04:49:32;14.90;;;7.20;;
20076;SDS011;12348;42.710;23.378;2023-04-25T04:51:59;11.53;;;7.33;;
20076;SDS011;12348;42.710;23.378;2023-04-25T04:54:26;9.30;;;6.70;;
20076;SDS011;12348;42.710;23.378;2023-04-25T04:56:53;8.97;;;6.30;;
20076;SDS011;12348;42.710;23.378;2023-04-25T04:59:20;12.90;;;6.23;;
20076;SDS011;12348;42.710;23.378;2023-04-25T05:01:47;9.70;;;6.90;;
20076;SDS011;12348;42.710;23.378;2023-04-25T05:04:13;9.83;;;6.87;;
20076;SDS011;12348;42.710;23.378;2023-04-25T05:06:42;12.60;;;6.63;;
20076;SDS011;12348;42.710;23.378;2023-04-25T05:09:09;10.33;;;6.67;;
20076;SDS011;12348;42.710;23.378;2023-04-25T05:11:41;11.30;;;7.00;;
20076;SDS011;12348;42.710;23.378;2023-04-25T05:14:08;10.87;;;6.13;;
20076;SDS011;12348;42.710;23.378;2023-04-25T05:16:35;10.23;;;6.30;;
20076;SDS011;12348;42.710;23.378;2023-04-25T05:19:04;7.90;;;5.60;;
20076;SDS011;12348;42.710;23.378;2023-04-25T05:21:31;9.37;;;6.33;;
20076;SDS011;12348;42.710;23.378;2023-04-25T05:24:00;9.07;;;6.07;;
20076;SDS011;12348;42.710;23.378;2023-04-25T05:26:27;8.73;;;6.30;;
20076;SDS011;12348;42.710;23.378;2023-04-25T05:28:56;9.60;;;6.50;;
20076;SDS011;12348;42.710;23.378;2023-04-25T05:31:22;10.50;;;7.40;;
20076;SDS011;12348;42.710;23.378;2023-04-25T05:33:49;13.13;;;5.83;;
20076;SDS011;12348;42.710;23.378;2023-04-25T05:36:16;10.20;;;6.07;;
20076;SDS011;12348;42.710;23.378;2023-04-25T05:38:43;9.13;;;5.43;;
20076;SDS011;12348;42.710;23.378;2023-04-25T05:41:11;7.10;;;5.03;;
20076;SDS011;12348;42.710;23.378;2023-04-25T05:43:37;5.67;;;3.90;;
20076;SDS011;12348;42.710;23.378;2023-04-25T05:46:10;6.27;;;4.27;;
20076;SDS011;12348;42.710;23.378;2023-04-25T05:48:37;6.30;;;4.10;;
20076;SDS011;12348;42.710;23.378;2023-04-25T05:51:04;5.10;;;3.83;;
20076;SDS011;12348;42.710;23.378;2023-04-25T05:53:31;5.90;;;4.43;;
20076;SDS011;12348;42.710;23.378;2023-04-25T05:55:59;5.30;;;4.37;;
20076;SDS011;12348;42.710;23.378;2023-04-25T05:58:29;4.00;;;3.37;;
20076;SDS011;12348;42.710;23.378;2023-04-25T06:01:01;5.60;;;3.93;;
20076;SDS011;12348;42.710;23.378;2023-04-25T06:03:28;6.90;;;3.83;;
20076;SDS011;12348;42.710;23.378;2023-04-25T06:05:55;8.60;;;4.83;;
20076;SDS011;12348;42.710;23.378;2023-04-25T06:08:22;6.70;;;3.80;;
20076;SDS011;12348;42.710;23.378;2023-04-25T06:10:49;4.97;;;3.50;;
20076;SDS011;12348;42.710;23.378;2023-04-25T06:13:16;5.80;;;4.43;;
20076;SDS011;12348;42.710;23.378;2023-04-25T06:15:47;7.60;;;4.23;;
20076;SDS011;12348;42.710;23.378;2023-04-25T06:18:18;7.73;;;3.93;;
20076;SDS011;12348;42.710;23.378;2023-04-25T06:20:46;5.30;;;4.37;;
20076;SDS011;12348;42.710;23.378;2023-04-25T06:23:12;5.50;;;4.00;;
20076;SDS011;12348;42.710;23.378;2023-04-25T06:25:39;7.70;;;4.53;;
20076;SDS011;12348;42.710;23.378;2023-04-25T06:28:06;6.23;;;4.97;;
20076;SDS011;12348;42.710;23.378;2023-04-25T06:30:33;14.30;;;8.00;;
20076;SDS011;12348;42.710;23.378;2023-04-25T06:33:01;7.63;;;5.57;;
20076;SDS011;12348;42.710;23.378;2023-04-25T06:35:28;5.90;;;4.80;;
20076;SDS011;12348;42.710;23.378;2023-04-25T06:37:55;9.93;;;5.17;;
20076;SDS011;12348;42.710;23.378;2023-04-25T06:40:22;9.87;;;5.50;;
20076;SDS011;12348;42.710;23.378;2023-04-25T06:42:49;7.47;;;4.53;;
20076;SDS011;12348;42.710;23.378;2023-04-25T06:45:15;8.83;;;5.23;;
20076;SDS011;12348;42.710;23.378;2023-04-25T06:47:42;6.63;;;4.00;;
20076;SDS011;12348;42.710;23.378;2023-04-25T06:50:10;6.40;;;3.87;;
20076;SDS011;12348;42.710;23.378;2023-04-25T06:52:37;6.23;;;3.80;;
20076;SDS011;12348;42.710;23.378;2023-04-25T06:55:04;6.93;;;4.17;;
20076;SDS011;12348;42.710;23.378;2023-04-25T06:57:32;7.53;;;4.30;;
20076;SDS011;12348;42.710;23.378;2023-04-25T06:59:58;7.57;;;4.17;;
20076;SDS011;12348;42.710;23.378;2023-04-25T07:02:25;9.83;;;5.93;;
20076;SDS011;12348;42.710;23.378;2023-04-25T07:04:52;16.13;;;9.57;;
20076;SDS011;12348;42.710;23.378;2023-04-25T07:07:22;5.87;;;4.77;;
20076;SDS011;12348;42.710;23.378;2023-04-25T07:09:49;15.03;;;8.03;;
20076;SDS011;12348;42.710;23.378;2023-04-25T07:12:16;11.43;;;6.80;;
20076;SDS011;12348;42.710;23.378;2023-04-25T07:14:43;16.20;;;9.53;;
20076;SDS011;12348;42.710;23.378;2023-04-25T07:17:09;6.70;;;4.00;;
20076;SDS011;12348;42.710;23.378;2023-04-25T07:19:36;9.03;;;6.33;;
20076;SDS011;12348;42.710;23.378;2023-04-25T07:22:04;12.13;;;5.70;;
20076;SDS011;12348;42.710;23.378;2023-04-25T07:24:33;13.87;;;7.57;;
20076;SDS011;12348;42.710;23.378;2023-04-25T07:27:01;12.40;;;7.00;;
20076;SDS011;12348;42.710;23.378;2023-04-25T07:29:28;4.77;;;3.80;;
20076;SDS011;12348;42.710;23.378;2023-04-25T07:31:56;6.60;;;4.63;;
20076;SDS011;12348;42.710;23.378;2023-04-25T07:34:23;9.67;;;5.30;;
20076;SDS011;12348;42.710;23.378;2023-04-25T07:36:50;6.70;;;4.53;;
20076;SDS011;12348;42.710;23.378;2023-04-25T07:39:17;5.57;;;4.00;;
20076;SDS011;12348;42.710;23.378;2023-04-25T07:41:45;7.03;;;4.20;;
20076;SDS011;12348;42.710;23.378;2023-04-25T07:44:12;9.13;;;4.83;;
20076;SDS011;12348;42.710;23.378;2023-04-25T07:46:39;7.90;;;4.57;;
20076;SDS011;12348;42.710;23.378;2023-04-25T07:49:06;6.23;;;4.60;;
20076;SDS011;12348;42.710;23.378;2023-04-25T07:51:33;9.93;;;5.70;;
20076;SDS011;12348;42.710;23.378;2023-04-25T07:54:00;13.13;;;8.60;;
20076;SDS011;12348;42.710;23.378;2023-04-25T07:56:26;13.50;;;8.73;;
20076;SDS011;12348;42.710;23.378;2023-04-25T07:58:54;13.43;;;7.33;;
20076;SDS011;12348;42.710;23.378;2023-04-25T08:01:21;13.27;;;6.47;;
20076;SDS011;12348;42.710;23.378;2023-04-25T08:03:48;15.23;;;8.60;;
20076;SDS011;12348;42.710;23.378;2023-04-25T08:06:14;13.47;;;6.87;;
20076;SDS011;12348;42.710;23.378;2023-04-25T08:08:43;16.10;;;6.97;;
20076;SDS011;12348;42.710;23.378;2023-04-25T08:11:09;10.13;;;6.83;;
20076;SDS011;12348;42.710;23.378;2023-04-25T08:13:37;10.47;;;6.70;;
20076;SDS011;12348;42.710;23.378;2023-04-25T08:16:05;9.13;;;5.87;;
20076;SDS011;12348;42.710;23.378;2023-04-25T08:18:31;10.57;;;5.87;;
20076;SDS011;12348;42.710;23.378;2023-04-25T08:21:00;6.67;;;4.80;;
20076;SDS011;12348;42.710;23.378;2023-04-25T08:23:26;6.43;;;4.80;;
20076;SDS011;12348;42.710;23.378;2023-04-25T08:25:53;7.53;;;5.23;;
20076;SDS011;12348;42.710;23.378;2023-04-25T08:28:20;5.83;;;4.67;;
20076;SDS011;12348;42.710;23.378;2023-04-25T08:30:47;9.60;;;5.10;;
20076;SDS011;12348;42.710;23.378;2023-04-25T08:33:16;8.17;;;4.73;;
20076;SDS011;12348;42.710;23.378;2023-04-25T08:35:44;8.97;;;6.77;;
20076;SDS011;12348;42.710;23.378;2023-04-25T08:38:11;16.13;;;8.27;;
20076;SDS011;12348;42.710;23.378;2023-04-25T08:40:38;13.03;;;6.73;;
20076;SDS011;12348;42.710;23.378;2023-04-25T08:43:06;6.53;;;4.53;;
20076;SDS011;12348;42.710;23.378;2023-04-25T08:45:36;8.93;;;6.07;;
20076;SDS011;12348;42.710;23.378;2023-04-25T08:48:06;11.93;;;8.27;;
20076;SDS011;12348;42.710;23.378;2023-04-25T08:50:38;12.80;;;8.07;;
20076;SDS011;12348;42.710;23.378;2023-04-25T08:53:06;17.13;;;11.03;;
20076;SDS011;12348;42.710;23.378;2023-04-25T08:55:36;11.60;;;7.10;;
20076;SDS011;12348;42.710;23.378;2023-04-25T08:58:09;11.63;;;7.53;;
20076;SDS011;12348;42.710;23.378;2023-04-25T09:00:37;10.07;;;6.70;;
20076;SDS011;12348;42.710;23.378;2023-04-25T09:03:04;16.47;;;8.93;;
20076;SDS011;12348;42.710;23.378;2023-04-25T09:05:32;14.60;;;9.60;;
20076;SDS011;12348;42.710;23.378;2023-04-25T09:08:01;6.17;;;5.07;;
20076;SDS011;12348;42.710;23.378;2023-04-25T09:10:28;5.03;;;4.00;;
20076;SDS011;12348;42.710;23.378;2023-04-25T09:13:05;5.13;;;3.87;;
20076;SDS011;12348;42.710;23.378;2023-04-25T09:15:35;6.17;;;3.40;;
20076;SDS011;12348;42.710;23.378;2023-04-25T09:18:14;9.27;;;3.87;;
20076;SDS011;12348;42.710;23.378;2023-04-25T09:20:48;4.60;;;3.77;;
20076;SDS011;12348;42.710;23.378;2023-04-25T09:23:16;5.93;;;3.20;;
20076;SDS011;12348;42.710;23.378;2023-04-25T09:25:46;6.27;;;3.10;;
20076;SDS011;12348;42.710;23.378;2023-04-25T09:28:14;6.93;;;4.63;;
20076;SDS011;12348;42.710;23.378;2023-04-25T09:30:41;6.10;;;3.57;;
20076;SDS011;12348;42.710;23.378;2023-04-25T09:33:08;3.50;;;2.90;;
20076;SDS011;12348;42.710;23.378;2023-04-25T09:35:36;4.13;;;2.67;;
20076;SDS011;12348;42.710;23.378;2023-04-25T09:38:08;13.40;;;8.80;;
20076;SDS011;12348;42.710;23.378;2023-04-25T09:40:40;4.00;;;3.03;;
20076;SDS011;12348;42.710;23.378;2023-04-25T09:43:10;8.10;;;3.67;;
20076;SDS011;12348;42.710;23.378;2023-04-25T09:45:46;5.47;;;3.13;;
20076;SDS011;12348;42.710;23.378;2023-04-25T09:48:16;5.17;;;3.00;;
20076;SDS011;12348;42.710;23.378;2023-04-25T09:50:44;4.23;;;3.43;;
20076;SDS011;12348;42.710;23.378;2023-04-25T09:53:11;2.83;;;2.40;;
20076;SDS011;12348;42.710;23.378;2023-04-25T09:55:40;3.77;;;2.30;;
20076;SDS011;12348;42.710;23.378;2023-04-25T09:58:09;3.03;;;2.53;;
20076;SDS011;12348;42.710;23.378;2023-04-25T10:00:38;5.73;;;3.70;;
20076;SDS011;12348;42.710;23.378;2023-04-25T10:03:07;4.93;;;3.00;;
20076;SDS011;12348;42.710;23.378;2023-04-25T10:05:34;4.30;;;2.73;;
20076;SDS011;12348;42.710;23.378;2023-04-25T10:08:03;3.60;;;2.60;;
20076;SDS011;12348;42.710;23.378;2023-04-25T10:10:31;3.60;;;2.97;;
20076;SDS011;12348;42.710;23.378;2023-04-25T10:13:03;5.33;;;2.20;;
20076;SDS011;12348;42.710;23.378;2023-04-25T10:15:32;2.80;;;1.80;;
20076;SDS011;12348;42.710;23.378;2023-04-25T10:18:01;2.20;;;2.00;;
20076;SDS011;12348;42.710;23.378;2023-04-25T10:20:28;3.57;;;2.50;;
20076;SDS011;12348;42.710;23.378;2023-04-25T10:22:57;3.03;;;2.40;;
20076;SDS011;12348;42.710;23.378;2023-04-25T10:25:30;3.10;;;2.60;;
20076;SDS011;12348;42.710;23.378;2023-04-25T10:27:59;7.53;;;2.53;;
20076;SDS011;12348;42.710;23.378;2023-04-25T10:30:28;4.03;;;2.60;;
20076;SDS011;12348;42.710;23.378;2023-04-25T10:32:55;5.17;;;3.20;;
20076;SDS011;12348;42.710;23.378;2023-04-25T10:35:24;3.30;;;2.60;;
20076;SDS011;12348;42.710;23.378;2023-04-25T10:37:56;4.33;;;3.40;;
20076;SDS011;12348;42.710;23.378;2023-04-25T10:40:24;1.90;;;1.60;;
20076;SDS011;12348;42.710;23.378;2023-04-25T10:42:51;1.93;;;1.10;;
20076;SDS011;12348;42.710;23.378;2023-04-25T10:45:19;1.77;;;1.50;;
20076;SDS011;12348;42.710;23.378;2023-04-25T10:47:47;2.77;;;1.57;;
20076;SDS011;12348;42.710;23.378;2023-04-25T10:50:14;2.40;;;1.80;;
20076;SDS011;12348;42.710;23.378;2023-04-25T10:52:42;4.90;;;1.97;;
20076;SDS011;12348;42.710;23.378;2023-04-25T10:55:09;2.43;;;1.47;;
20076;SDS011;12348;42.710;23.378;2023-04-25T10:57:37;6.53;;;2.97;;
20076;SDS011;12348;42.710;23.378;2023-04-25T11:00:07;3.63;;;2.03;;
20076;SDS011;12348;42.710;23.378;2023-04-25T11:02:42;2.47;;;1.60;;
20076;SDS011;12348;42.710;23.378;2023-04-25T11:05:20;1.70;;;1.30;;
20076;SDS011;12348;42.710;23.378;2023-04-25T11:07:50;3.47;;;2.00;;
20076;SDS011;12348;42.710;23.378;2023-04-25T11:10:19;1.70;;;1.40;;
20076;SDS011;12348;42.710;23.378;2023-04-25T11:12:46;5.93;;;3.67;;
20076;SDS011;12348;42.710;23.378;2023-04-25T11:15:13;5.13;;;3.07;;
20076;SDS011;12348;42.710;23.378;2023-04-25T11:17:40;2.10;;;1.37;;
20076;SDS011;12348;42.710;23.378;2023-04-25T11:20:08;2.03;;;1.03;;
20076;SDS011;12348;42.710;23.378;2023-04-25T11:22:40;1.50;;;1.00;;
20076;SDS011;12348;42.710;23.378;2023-04-25T11:25:08;0.63;;;0.60;;
20076;SDS011;12348;42.710;23.378;2023-04-25T11:27:37;2.00;;;1.40;;
20076;SDS011;12348;42.710;23.378;2023-04-25T11:30:12;2.73;;;1.23;;
20076;SDS011;12348;42.710;23.378;2023-04-25T11:32:41;4.33;;;2.13;;
20076;SDS011;12348;42.710;23.378;2023-04-25T11:35:08;1.97;;;1.20;;
20076;SDS011;12348;42.710;23.378;2023-04-25T11:37:35;1.13;;;0.80;;
20076;SDS011;12348;42.710;23.378;2023-04-25T11:40:04;1.80;;;1.53;;
20076;SDS011;12348;42.710;23.378;2023-04-25T11:42:34;2.50;;;1.30;;
20076;SDS011;12348;42.710;23.378;2023-04-25T11:45:00;1.33;;;1.00;;
20076;SDS011;12348;42.710;23.378;2023-04-25T11:47:28;4.47;;;1.00;;
20076;SDS011;12348;42.710;23.378;2023-04-25T11:49:57;3.70;;;1.10;;
20076;SDS011;12348;42.710;23.378;2023-04-25T11:52:24;1.50;;;1.10;;
20076;SDS011;12348;42.710;23.378;2023-04-25T11:54:51;1.07;;;1.00;;
20076;SDS011;12348;42.710;23.378;2023-04-25T11:57:20;3.67;;;1.10;;
20076;SDS011;12348;42.710;23.378;2023-04-25T11:59:47;1.30;;;1.20;;
20076;SDS011;12348;42.710;23.378;2023-04-25T12:02:23;2.40;;;1.50;;
20076;SDS011;12348;42.710;23.378;2023-04-25T12:04:51;3.10;;;1.33;;
20076;SDS011;12348;42.710;23.378;2023-04-25T12:07:18;1.60;;;1.37;;
20076;SDS011;12348;42.710;23.378;2023-04-25T12:09:51;2.70;;;1.23;;
20076;SDS011;12348;42.710;23.378;2023-04-25T12:12:20;0.97;;;0.80;;
20076;SDS011;12348;42.710;23.378;2023-04-25T12:14:47;2.17;;;1.17;;
20076;SDS011;12348;42.710;23.378;2023-04-25T12:17:14;1.20;;;1.07;;
20076;SDS011;12348;42.710;23.378;2023-04-25T12:19:43;5.40;;;2.20;;
20076;SDS011;12348;42.710;23.378;2023-04-25T12:22:19;1.40;;;0.83;;
20076;SDS011;12348;42.710;23.378;2023-04-25T12:24:47;0.70;;;0.70;;
20076;SDS011;12348;42.710;23.378;2023-04-25T12:27:15;1.00;;;1.00;;
20076;SDS011;12348;42.710;23.378;2023-04-25T12:29:51;1.90;;;1.23;;
20076;SDS011;12348;42.710;23.378;2023-04-25T12:32:19;0.83;;;0.83;;
20076;SDS011;12348;42.710;23.378;2023-04-25T12:34:46;0.73;;;0.70;;
20076;SDS011;12348;42.710;23.378;2023-04-25T12:37:13;1.90;;;0.90;;
20076;SDS011;12348;42.710;23.378;2023-04-25T12:39:40;4.00;;;1.30;;
20076;SDS011;12348;42.710;23.378;2023-04-25T12:42:07;4.53;;;1.40;;
20076;SDS011;12348;42.710;23.378;2023-04-25T12:44:36;2.33;;;1.13;;
20076;SDS011;12348;42.710;23.378;2023-04-25T12:47:05;3.70;;;1.50;;
20076;SDS011;12348;42.710;23.378;2023-04-25T12:49:32;2.13;;;1.10;;
20076;SDS011;12348;42.710;23.378;2023-04-25T12:51:58;3.83;;;2.07;;
20076;SDS011;12348;42.710;23.378;2023-04-25T12:54:25;15.57;;;8.17;;
20076;SDS011;12348;42.710;23.378;2023-04-25T12:56:52;7.10;;;2.70;;
20076;SDS011;12348;42.710;23.378;2023-04-25T12:59:20;7.23;;;3.53;;
20076;SDS011;12348;42.710;23.378;2023-04-25T13:01:46;5.30;;;2.80;;
20076;SDS011;12348;42.710;23.378;2023-04-25T13:04:15;9.87;;;5.97;;
20076;SDS011;12348;42.710;23.378;2023-04-25T13:06:42;8.77;;;4.20;;
20076;SDS011;12348;42.710;23.378;2023-04-25T13:09:09;8.20;;;5.27;;
20076;SDS011;12348;42.710;23.378;2023-04-25T13:11:37;18.63;;;7.97;;
20076;SDS011;12348;42.710;23.378;2023-04-25T13:14:04;10.67;;;5.00;;
20076;SDS011;12348;42.710;23.378;2023-04-25T13:16:31;9.50;;;4.87;;
20076;SDS011;12348;42.710;23.378;2023-04-25T13:18:58;3.97;;;2.70;;
20076;SDS011;12348;42.710;23.378;2023-04-25T13:21:29;5.27;;;2.87;;
20076;SDS011;12348;42.710;23.378;2023-04-25T13:23:57;11.93;;;5.10;;
20076;SDS011;12348;42.710;23.378;2023-04-25T13:26:23;8.77;;;5.77;;
20076;SDS011;12348;42.710;23.378;2023-04-25T13:28:51;6.67;;;3.50;;
20076;SDS011;12348;42.710;23.378;2023-04-25T13:31:17;3.90;;;2.60;;
20076;SDS011;12348;42.710;23.378;2023-04-25T13:33:44;2.57;;;1.97;;
20076;SDS011;12348;42.710;23.378;2023-04-25T13:36:11;3.07;;;1.93;;
20076;SDS011;12348;42.710;23.378;2023-04-25T13:38:39;3.80;;;1.90;;
20076;SDS011;12348;42.710;23.378;2023-04-25T13:41:08;3.90;;;1.87;;
20076;SDS011;12348;42.710;23.378;2023-04-25T13:43:36;3.67;;;2.10;;
20076;SDS011;12348;42.710;23.378;2023-04-25T13:46:03;4.17;;;2.10;;
20076;SDS011;12348;42.710;23.378;2023-04-25T13:48:30;4.27;;;2.40;;
20076;SDS011;12348;42.710;23.378;2023-04-25T13:50:56;4.30;;;2.63;;
20076;SDS011;12348;42.710;23.378;2023-04-25T13:53:26;4.23;;;2.63;;
20076;SDS011;12348;42.710;23.378;2023-04-25T13:55:54;4.03;;;2.40;;
20076;SDS011;12348;42.710;23.378;2023-04-25T13:58:21;5.30;;;2.67;;
20076;SDS011;12348;42.710;23.378;2023-04-25T14:00:48;5.70;;;2.97;;
20076;SDS011;12348;42.710;23.378;2023-04-25T14:03:15;5.07;;;2.97;;
20076;SDS011;12348;42.710;23.378;2023-04-25T14:05:42;8.10;;;3.00;;
20076;SDS011;12348;42.710;23.378;2023-04-25T14:08:09;8.57;;;4.07;;
20076;SDS011;12348;42.710;23.378;2023-04-25T14:10:36;5.40;;;3.90;;
20076;SDS011;12348;42.710;23.378;2023-04-25T14:13:04;8.10;;;3.47;;
20076;SDS011;12348;42.710;23.378;2023-04-25T14:15:32;8.00;;;3.13;;
20076;SDS011;12348;42.710;23.378;2023-04-25T14:17:58;4.53;;;2.40;;
20076;SDS011;12348;42.710;23.378;2023-04-25T14:20:28;5.23;;;2.63;;
20076;SDS011;12348;42.710;23.378;2023-04-25T14:22:56;7.90;;;3.03;;
20076;SDS011;12348;42.710;23.378;2023-04-25T14:25:23;5.17;;;2.20;;
20076;SDS011;12348;42.710;23.378;2023-04-25T14:27:50;2.47;;;1.93;;
20076;SDS011;12348;42.710;23.378;2023-04-25T14:30:19;1.90;;;1.50;;
20076;SDS011;12348;42.710;23.378;2023-04-25T14:32:47;1.87;;;1.73;;
20076;SDS011;12348;42.710;23.378;2023-04-25T14:35:14;3.07;;;1.50;;
20076;SDS011;12348;42.710;23.378;2023-04-25T14:37:41;2.47;;;1.20;;